sensor_id;sensor_type;location;lat;lon;timestamp;pressure;altitude;pressure_sealevel;temperature;humidity
81181;BME280;70650;51.408;7.132;2023-07-20T00:00:49;100341.19;;;15.24;84.41
81181;BME280;70650;51.408;7.132;2023-07-20T00:03:19;100339.25;;;15.26;84.06
81181;BME280;70650;51.408;7.132;2023-07-20T00:05:51;100340.53;;;15.33;84.27
81181;BME280;70650;51.408;7.132;2023-07-20T00:08:17;100342.94;;;15.36;83.30
81181;BME280;70650;51.408;7.132;2023-07-20T00:10:42;100336.91;;;15.34;83.11
81181;BME280;70650;51.408;7.132;2023-07-20T00:13:08;100337.88;;;15.33;83.21
81181;BME280;70650;51.408;7.132;2023-07-20T00:15:34;100334.09;;;15.35;83.83
81181;BME280;70650;51.408;7.132;2023-07-20T00:17:59;100334.09;;;15.35;83.35
81181;BME280;70650;51.408;7.132;2023-07-20T00:20:24;100338.25;;;15.40;83.72
81181;BME280;70650;51.408;7.132;2023-07-20T00:22:50;100332.81;;;15.41;84.16
81181;BME280;70650;51.408;7.132;2023-07-20T00:25:16;100326.88;;;15.37;84.08
81181;BME280;70650;51.408;7.132;2023-07-20T00:27:42;100321.75;;;15.34;83.54
81181;BME280;70650;51.408;7.132;2023-07-20T00:30:07;100322.59;;;15.35;84.51
81181;BME280;70650;51.408;7.132;2023-07-20T00:32:33;100306.00;;;15.31;84.20
81181;BME280;70650;51.408;7.132;2023-07-20T00:34:58;100315.91;;;15.29;84.06
81181;BME280;70650;51.408;7.132;2023-07-20T00:37:23;100327.53;;;15.28;84.32
81181;BME280;70650;51.408;7.132;2023-07-20T00:39:49;100328.84;;;15.23;85.09
81181;BME280;70650;51.408;7.132;2023-07-20T00:42:14;100326.75;;;15.15;85.00
81181;BME280;70650;51.408;7.132;2023-07-20T00:44:39;100316.66;;;15.07;85.99
81181;BME280;70650;51.408;7.132;2023-07-20T00:47:05;100319.03;;;14.99;85.73
81181;BME280;70650;51.408;7.132;2023-07-20T00:49:31;100321.56;;;15.01;85.98
81181;BME280;70650;51.408;7.132;2023-07-20T00:51:57;100317.84;;;15.03;85.82
81181;BME280;70650;51.408;7.132;2023-07-20T00:54:22;100321.81;;;14.98;86.37
81181;BME280;70650;51.408;7.132;2023-07-20T00:56:48;100328.00;;;14.98;86.49
81181;BME280;70650;51.408;7.132;2023-07-20T00:59:14;100322.41;;;15.01;85.58
81181;BME280;70650;51.408;7.132;2023-07-20T01:01:39;100322.41;;;15.01;85.20
81181;BME280;70650;51.408;7.132;2023-07-20T01:04:05;100317.09;;;15.01;85.40
81181;BME280;70650;51.408;7.132;2023-07-20T01:09:20;100320.00;;;14.98;85.22
81181;BME280;70650;51.408;7.132;2023-07-20T01:12:13;100328.72;;;15.00;86.16
81181;BME280;70650;51.408;7.132;2023-07-20T01:14:44;100325.09;;;15.01;85.15
81181;BME280;70650;51.408;7.132;2023-07-20T01:17:10;100319.63;;;15.03;84.77
81181;BME280;70650;51.408;7.132;2023-07-20T01:19:35;100322.81;;;15.08;84.66
81181;BME280;70650;51.408;7.132;2023-07-20T01:24:48;100329.00;;;15.08;84.57
81181;BME280;70650;51.408;7.132;2023-07-20T01:27:42;100312.94;;;15.10;84.57
81181;BME280;70650;51.408;7.132;2023-07-20T01:30:25;100317.16;;;15.13;84.38
81181;BME280;70650;51.408;7.132;2023-07-20T01:32:54;100318.13;;;15.11;85.10
81181;BME280;70650;51.408;7.132;2023-07-20T01:35:21;100310.88;;;15.14;83.69
81181;BME280;70650;51.408;7.132;2023-07-20T01:37:48;100310.78;;;15.15;83.86
81181;BME280;70650;51.408;7.132;2023-07-20T01:40:16;100312.41;;;15.05;85.19
81181;BME280;70650;51.408;7.132;2023-07-20T01:42:47;100314.25;;;14.92;85.11
81181;BME280;70650;51.408;7.132;2023-07-20T01:45:13;100310.22;;;14.86;84.92
81181;BME280;70650;51.408;7.132;2023-07-20T01:47:39;100314.88;;;14.95;84.84
81181;BME280;70650;51.408;7.132;2023-07-20T01:50:05;100315.97;;;14.93;85.03
81181;BME280;70650;51.408;7.132;2023-07-20T01:52:30;100310.66;;;14.93;84.82
81181;BME280;70650;51.408;7.132;2023-07-20T01:54:56;100313.41;;;14.91;85.04
81181;BME280;70650;51.408;7.132;2023-07-20T01:57:21;100316.41;;;14.87;85.52
81181;BME280;70650;51.408;7.132;2023-07-20T01:59:46;100313.84;;;14.85;85.54
81181;BME280;70650;51.408;7.132;2023-07-20T02:02:11;100315.44;;;14.88;85.88
81181;BME280;70650;51.408;7.132;2023-07-20T02:04:37;100306.63;;;14.87;86.03
81181;BME280;70650;51.408;7.132;2023-07-20T02:07:02;100306.94;;;14.82;87.31
81181;BME280;70650;51.408;7.132;2023-07-20T02:09:27;100305.97;;;14.83;87.95
81181;BME280;70650;51.408;7.132;2023-07-20T02:11:53;100308.00;;;14.80;88.34
81181;BME280;70650;51.408;7.132;2023-07-20T02:14:18;100304.59;;;14.78;88.66
81181;BME280;70650;51.408;7.132;2023-07-20T02:16:43;100303.03;;;14.75;88.20
81181;BME280;70650;51.408;7.132;2023-07-20T02:19:09;100305.38;;;14.67;88.66
81181;BME280;70650;51.408;7.132;2023-07-20T02:21:34;100314.34;;;14.66;89.78
81181;BME280;70650;51.408;7.132;2023-07-20T02:23:59;100315.19;;;14.67;90.25
81181;BME280;70650;51.408;7.132;2023-07-20T02:26:25;100315.19;;;14.67;90.11
81181;BME280;70650;51.408;7.132;2023-07-20T02:28:50;100316.34;;;14.63;90.29
81181;BME280;70650;51.408;7.132;2023-07-20T02:31:16;100299.66;;;14.61;90.17
81181;BME280;70650;51.408;7.132;2023-07-20T02:33:41;100305.94;;;14.60;90.74
81181;BME280;70650;51.408;7.132;2023-07-20T02:36:06;100319.69;;;14.53;91.23
81181;BME280;70650;51.408;7.132;2023-07-20T02:38:32;100317.47;;;14.47;91.87
81181;BME280;70650;51.408;7.132;2023-07-20T02:40:57;100303.31;;;14.47;92.59
81181;BME280;70650;51.408;7.132;2023-07-20T02:43:22;100316.25;;;14.39;92.92
81181;BME280;70650;51.408;7.132;2023-07-20T02:45:50;100314.88;;;14.33;92.67
81181;BME280;70650;51.408;7.132;2023-07-20T02:48:15;100312.22;;;14.33;92.80
81181;BME280;70650;51.408;7.132;2023-07-20T02:50:40;100313.91;;;14.34;93.04
81181;BME280;70650;51.408;7.132;2023-07-20T02:53:06;100314.44;;;14.39;92.81
81181;BME280;70650;51.408;7.132;2023-07-20T02:55:31;100326.03;;;14.38;92.99
81181;BME280;70650;51.408;7.132;2023-07-20T02:57:56;100318.06;;;14.38;93.51
81181;BME280;70650;51.408;7.132;2023-07-20T03:00:22;100321.69;;;14.37;92.90
81181;BME280;70650;51.408;7.132;2023-07-20T03:02:48;100327.13;;;14.36;93.36
81181;BME280;70650;51.408;7.132;2023-07-20T03:05:14;100322.66;;;14.36;93.54
81181;BME280;70650;51.408;7.132;2023-07-20T03:07:39;100329.34;;;14.42;93.54
81181;BME280;70650;51.408;7.132;2023-07-20T03:10:05;100328.69;;;14.38;93.85
81181;BME280;70650;51.408;7.132;2023-07-20T03:12:34;100328.38;;;14.43;94.09
81181;BME280;70650;51.408;7.132;2023-07-20T03:14:59;100337.22;;;14.43;94.09
81181;BME280;70650;51.408;7.132;2023-07-20T03:17:24;100334.16;;;14.49;94.50
81181;BME280;70650;51.408;7.132;2023-07-20T03:19:50;100332.00;;;14.42;93.84
81181;BME280;70650;51.408;7.132;2023-07-20T03:22:15;100334.97;;;14.37;93.99
81181;BME280;70650;51.408;7.132;2023-07-20T03:24:40;100341.69;;;14.43;93.90
81181;BME280;70650;51.408;7.132;2023-07-20T03:27:06;100338.59;;;14.36;93.86
81181;BME280;70650;51.408;7.132;2023-07-20T03:29:32;100333.19;;;14.25;94.16
81181;BME280;70650;51.408;7.132;2023-07-20T03:31:58;100334.34;;;14.21;94.24
81181;BME280;70650;51.408;7.132;2023-07-20T03:34:24;100329.47;;;14.15;94.32
81181;BME280;70650;51.408;7.132;2023-07-20T03:36:50;100334.97;;;14.12;94.19
81181;BME280;70650;51.408;7.132;2023-07-20T03:39:15;100334.97;;;14.12;93.72
81181;BME280;70650;51.408;7.132;2023-07-20T03:41:40;100337.84;;;14.09;93.75
81181;BME280;70650;51.408;7.132;2023-07-20T03:44:06;100335.41;;;14.05;93.86
81181;BME280;70650;51.408;7.132;2023-07-20T03:46:31;100332.97;;;14.02;93.80
81181;BME280;70650;51.408;7.132;2023-07-20T03:48:56;100338.28;;;14.02;94.12
81181;BME280;70650;51.408;7.132;2023-07-20T03:51:21;100337.50;;;14.00;94.02
81181;BME280;70650;51.408;7.132;2023-07-20T03:53:47;100333.28;;;13.98;93.66
81181;BME280;70650;51.408;7.132;2023-07-20T03:56:12;100340.94;;;14.02;93.92
81181;BME280;70650;51.408;7.132;2023-07-20T03:58:37;100334.22;;;13.97;94.25
81181;BME280;70650;51.408;7.132;2023-07-20T04:01:03;100339.84;;;13.92;94.41
81181;BME280;70650;51.408;7.132;2023-07-20T04:03:28;100335.28;;;13.94;94.15
81181;BME280;70650;51.408;7.132;2023-07-20T04:05:54;100348.78;;;13.91;94.43
81181;BME280;70650;51.408;7.132;2023-07-20T04:08:22;100352.19;;;13.93;94.59
81181;BME280;70650;51.408;7.132;2023-07-20T04:10:48;100349.00;;;13.88;94.54
81181;BME280;70650;51.408;7.132;2023-07-20T04:13:13;100347.72;;;13.94;94.54
81181;BME280;70650;51.408;7.132;2023-07-20T04:15:38;100345.28;;;13.91;94.49
81181;BME280;70650;51.408;7.132;2023-07-20T04:18:04;100354.44;;;13.99;94.22
81181;BME280;70650;51.408;7.132;2023-07-20T04:20:29;100345.59;;;13.99;94.46
81181;BME280;70650;51.408;7.132;2023-07-20T04:22:54;100358.06;;;13.98;94.42
81181;BME280;70650;51.408;7.132;2023-07-20T04:25:20;100356.97;;;14.01;94.92
81181;BME280;70650;51.408;7.132;2023-07-20T04:27:45;100359.25;;;14.07;94.79
81181;BME280;70650;51.408;7.132;2023-07-20T04:30:11;100363.69;;;14.06;94.32
81181;BME280;70650;51.408;7.132;2023-07-20T04:32:37;100371.16;;;14.14;94.61
81181;BME280;70650;51.408;7.132;2023-07-20T04:35:06;100369.22;;;14.16;94.83
81181;BME280;70650;51.408;7.132;2023-07-20T04:37:32;100369.66;;;14.23;94.23
81181;BME280;70650;51.408;7.132;2023-07-20T04:39:58;100369.75;;;14.34;94.33
81181;BME280;70650;51.408;7.132;2023-07-20T04:42:23;100370.72;;;14.33;94.19
81181;BME280;70650;51.408;7.132;2023-07-20T04:44:48;100375.09;;;14.34;94.03
81181;BME280;70650;51.408;7.132;2023-07-20T04:47:14;100372.97;;;14.39;94.09
81181;BME280;70650;51.408;7.132;2023-07-20T04:49:39;100377.97;;;14.44;94.24
81181;BME280;70650;51.408;7.132;2023-07-20T04:52:04;100377.81;;;14.47;94.22
81181;BME280;70650;51.408;7.132;2023-07-20T04:54:30;100377.69;;;14.48;93.97
81181;BME280;70650;51.408;7.132;2023-07-20T04:56:55;100386.50;;;14.49;93.82
81181;BME280;70650;51.408;7.132;2023-07-20T04:59:21;100384.13;;;14.44;93.35
81181;BME280;70650;51.408;7.132;2023-07-20T05:01:46;100380.22;;;14.50;92.70
81181;BME280;70650;51.408;7.132;2023-07-20T05:04:11;100380.13;;;14.51;93.02
81181;BME280;70650;51.408;7.132;2023-07-20T05:06:37;100383.41;;;14.55;94.22
81181;BME280;70650;51.408;7.132;2023-07-20T05:09:04;100389.47;;;14.57;94.19
81181;BME280;70650;51.408;7.132;2023-07-20T05:11:29;100392.47;;;14.52;93.39
81181;BME280;70650;51.408;7.132;2023-07-20T05:13:54;100385.75;;;14.60;93.54
81181;BME280;70650;51.408;7.132;2023-07-20T05:16:19;100386.19;;;14.66;93.14
81181;BME280;70650;51.408;7.132;2023-07-20T05:18:45;100395.75;;;14.69;92.69
81181;BME280;70650;51.408;7.132;2023-07-20T05:21:10;100390.34;;;14.70;93.42
81181;BME280;70650;51.408;7.132;2023-07-20T05:23:37;100396.28;;;14.74;93.76
81181;BME280;70650;51.408;7.132;2023-07-20T05:26:02;100396.19;;;14.75;92.72
81181;BME280;70650;51.408;7.132;2023-07-20T05:28:27;100392.75;;;14.73;92.60
81181;BME280;70650;51.408;7.132;2023-07-20T05:30:53;100389.13;;;14.74;92.70
81181;BME280;70650;51.408;7.132;2023-07-20T05:33:20;100392.56;;;14.76;92.37
81181;BME280;70650;51.408;7.132;2023-07-20T05:35:45;100398.72;;;14.77;93.22
81181;BME280;70650;51.408;7.132;2023-07-20T05:38:11;100406.84;;;14.75;93.57
81181;BME280;70650;51.408;7.132;2023-07-20T05:40:40;100398.19;;;14.72;92.96
81181;BME280;70650;51.408;7.132;2023-07-20T05:43:06;100402.44;;;14.74;93.28
81181;BME280;70650;51.408;7.132;2023-07-20T05:45:31;100414.59;;;14.78;93.86
81181;BME280;70650;51.408;7.132;2023-07-20T05:47:56;100408.66;;;14.75;93.85
81181;BME280;70650;51.408;7.132;2023-07-20T05:50:22;100407.69;;;14.76;93.22
81181;BME280;70650;51.408;7.132;2023-07-20T05:52:47;100408.41;;;14.78;93.63
81181;BME280;70650;51.408;7.132;2023-07-20T05:55:13;100407.97;;;14.84;93.84
81181;BME280;70650;51.408;7.132;2023-07-20T05:57:38;100407.78;;;14.87;93.77
81181;BME280;70650;51.408;7.132;2023-07-20T06:00:07;100411.16;;;14.89;93.49
81181;BME280;70650;51.408;7.132;2023-07-20T06:02:33;100408.31;;;14.92;93.32
81181;BME280;70650;51.408;7.132;2023-07-20T06:04:58;100423.31;;;14.93;93.60
81181;BME280;70650;51.408;7.132;2023-07-20T06:07:23;100421.19;;;14.98;93.50
81181;BME280;70650;51.408;7.132;2023-07-20T06:09:49;100425.75;;;14.96;93.35
81181;BME280;70650;51.408;7.132;2023-07-20T06:12:14;100426.72;;;14.95;92.95
81181;BME280;70650;51.408;7.132;2023-07-20T06:14:39;100430.09;;;14.97;92.86
81181;BME280;70650;51.408;7.132;2023-07-20T06:17:05;100427.34;;;14.99;92.77
81181;BME280;70650;51.408;7.132;2023-07-20T06:19:30;100428.84;;;14.90;92.81
81181;BME280;70650;51.408;7.132;2023-07-20T06:21:55;100428.31;;;14.85;92.86
81181;BME280;70650;51.408;7.132;2023-07-20T06:24:21;100439.72;;;14.87;92.32
81181;BME280;70650;51.408;7.132;2023-07-20T06:26:46;100438.88;;;14.87;92.70
81181;BME280;70650;51.408;7.132;2023-07-20T06:29:11;100450.03;;;14.92;92.53
81181;BME280;70650;51.408;7.132;2023-07-20T06:31:37;100444.38;;;14.96;92.17
81181;BME280;70650;51.408;7.132;2023-07-20T06:34:03;100448.53;;;15.00;91.54
81181;BME280;70650;51.408;7.132;2023-07-20T06:36:28;100451.00;;;15.03;91.87
81181;BME280;70650;51.408;7.132;2023-07-20T06:38:55;100443.94;;;15.02;91.71
81181;BME280;70650;51.408;7.132;2023-07-20T06:41:20;100446.06;;;15.10;90.51
81181;BME280;70650;51.408;7.132;2023-07-20T06:43:46;100447.97;;;15.21;89.48
81181;BME280;70650;51.408;7.132;2023-07-20T06:46:12;100447.53;;;15.27;89.84
81181;BME280;70650;51.408;7.132;2023-07-20T06:48:37;100443.38;;;15.23;88.48
81181;BME280;70650;51.408;7.132;2023-07-20T06:51:02;100441.44;;;15.25;89.53
81181;BME280;70650;51.408;7.132;2023-07-20T06:53:29;100442.22;;;15.14;90.16
81181;BME280;70650;51.408;7.132;2023-07-20T06:55:54;100439.06;;;15.09;89.30
81181;BME280;70650;51.408;7.132;2023-07-20T06:58:22;100442.88;;;15.05;90.49
81181;BME280;70650;51.408;7.132;2023-07-20T07:00:48;100447.03;;;14.96;88.20
81181;BME280;70650;51.408;7.132;2023-07-20T07:03:13;100446.19;;;14.96;89.77
81181;BME280;70650;51.408;7.132;2023-07-20T07:05:39;100448.13;;;14.94;89.94
81181;BME280;70650;51.408;7.132;2023-07-20T07:08:07;100452.91;;;15.01;90.61
81181;BME280;70650;51.408;7.132;2023-07-20T07:10:35;100451.28;;;15.11;88.89
81181;BME280;70650;51.408;7.132;2023-07-20T07:13:01;100459.91;;;15.15;89.54
81181;BME280;70650;51.408;7.132;2023-07-20T07:15:26;100461.59;;;15.29;90.71
81181;BME280;70650;51.408;7.132;2023-07-20T07:17:52;100458.56;;;15.46;91.56
81181;BME280;70650;51.408;7.132;2023-07-20T07:20:17;100461.28;;;15.57;90.80
81181;BME280;70650;51.408;7.132;2023-07-20T07:22:43;100466.28;;;15.62;90.45
81181;BME280;70650;51.408;7.132;2023-07-20T07:25:09;100463.53;;;15.63;90.50
81181;BME280;70650;51.408;7.132;2023-07-20T07:27:35;100467.47;;;15.58;82.50
81181;BME280;70650;51.408;7.132;2023-07-20T07:30:01;100467.59;;;15.56;84.41
81181;BME280;70650;51.408;7.132;2023-07-20T07:32:26;100464.50;;;15.62;86.87
81181;BME280;70650;51.408;7.132;2023-07-20T07:34:51;100459.34;;;15.59;87.10
81181;BME280;70650;51.408;7.132;2023-07-20T07:37:17;100464.69;;;15.59;88.65
81181;BME280;70650;51.408;7.132;2023-07-20T07:39:44;100469.84;;;15.62;89.20
81181;BME280;70650;51.408;7.132;2023-07-20T07:42:10;100469.25;;;15.70;87.03
81181;BME280;70650;51.408;7.132;2023-07-20T07:44:35;100467.91;;;15.64;89.35
81181;BME280;70650;51.408;7.132;2023-07-20T07:47:00;100470.00;;;15.59;88.81
81181;BME280;70650;51.408;7.132;2023-07-20T07:49:26;100478.81;;;15.49;87.29
81181;BME280;70650;51.408;7.132;2023-07-20T07:51:51;100475.81;;;15.66;81.72
81181;BME280;70650;51.408;7.132;2023-07-20T07:54:16;100478.81;;;15.85;82.94
81181;BME280;70650;51.408;7.132;2023-07-20T07:56:42;100478.78;;;16.09;85.16
81181;BME280;70650;51.408;7.132;2023-07-20T07:59:09;100480.31;;;16.25;84.45
81181;BME280;70650;51.408;7.132;2023-07-20T08:01:34;100478.47;;;16.60;84.73
81181;BME280;70650;51.408;7.132;2023-07-20T08:03:59;100478.50;;;16.72;81.98
81181;BME280;70650;51.408;7.132;2023-07-20T08:06:25;100481.44;;;16.80;83.42
81181;BME280;70650;51.408;7.132;2023-07-20T08:08:50;100481.81;;;16.98;79.69
81181;BME280;70650;51.408;7.132;2023-07-20T08:11:16;100482.88;;;16.84;75.84
81181;BME280;70650;51.408;7.132;2023-07-20T08:13:43;100490.47;;;16.55;76.75
81181;BME280;70650;51.408;7.132;2023-07-20T08:16:08;100500.69;;;16.26;77.34
81181;BME280;70650;51.408;7.132;2023-07-20T08:18:33;100495.09;;;16.17;79.39
81181;BME280;70650;51.408;7.132;2023-07-20T08:20:58;100501.47;;;16.15;76.94
81181;BME280;70650;51.408;7.132;2023-07-20T08:23:24;100496.94;;;16.04;77.43
81181;BME280;70650;51.408;7.132;2023-07-20T08:25:49;100506.50;;;15.96;79.52
81181;BME280;70650;51.408;7.132;2023-07-20T08:28:15;100505.19;;;16.01;80.44
81181;BME280;70650;51.408;7.132;2023-07-20T08:30:47;100506.59;;;16.18;77.05
81181;BME280;70650;51.408;7.132;2023-07-20T08:33:14;100494.91;;;16.43;74.65
81181;BME280;70650;51.408;7.132;2023-07-20T08:35:40;100496.13;;;16.50;76.71
81181;BME280;70650;51.408;7.132;2023-07-20T08:38:05;100496.78;;;16.65;76.46
81181;BME280;70650;51.408;7.132;2023-07-20T08:40:40;100496.38;;;16.82;78.50
81181;BME280;70650;51.408;7.132;2023-07-20T08:43:06;100500.41;;;16.99;77.21
81181;BME280;70650;51.408;7.132;2023-07-20T08:45:33;100495.31;;;16.96;72.95
81181;BME280;70650;51.408;7.132;2023-07-20T08:48:00;100500.41;;;16.99;71.81
81181;BME280;70650;51.408;7.132;2023-07-20T08:50:28;100502.22;;;16.99;72.23
81181;BME280;70650;51.408;7.132;2023-07-20T08:52:56;100503.56;;;17.04;71.98
81181;BME280;70650;51.408;7.132;2023-07-20T08:55:23;100504.53;;;17.14;74.27
81181;BME280;70650;51.408;7.132;2023-07-20T08:57:50;100506.09;;;17.17;72.39
81181;BME280;70650;51.408;7.132;2023-07-20T09:00:16;100508.91;;;17.15;73.30
81181;BME280;70650;51.408;7.132;2023-07-20T09:02:45;100508.41;;;17.10;77.96
81181;BME280;70650;51.408;7.132;2023-07-20T09:05:10;100511.81;;;17.01;79.07
81181;BME280;70650;51.408;7.132;2023-07-20T09:07:39;100507.69;;;16.97;77.57
81181;BME280;70650;51.408;7.132;2023-07-20T09:10:05;100514.38;;;16.91;74.68
81181;BME280;70650;51.408;7.132;2023-07-20T09:12:33;100504.53;;;17.14;77.10
81181;BME280;70650;51.408;7.132;2023-07-20T09:14:59;100503.06;;;17.44;76.14
81181;BME280;70650;51.408;7.132;2023-07-20T09:17:26;100501.59;;;17.51;75.45
81181;BME280;70650;51.408;7.132;2023-07-20T09:19:51;100501.22;;;17.78;74.01
81181;BME280;70650;51.408;7.132;2023-07-20T09:22:17;100496.38;;;17.61;69.31
81181;BME280;70650;51.408;7.132;2023-07-20T09:24:42;100505.88;;;17.42;73.31
81181;BME280;70650;51.408;7.132;2023-07-20T09:27:08;100505.25;;;17.28;69.80
81181;BME280;70650;51.408;7.132;2023-07-20T09:29:34;100505.88;;;17.20;73.12
81181;BME280;70650;51.408;7.132;2023-07-20T09:32:04;100506.09;;;17.39;69.77
81181;BME280;70650;51.408;7.132;2023-07-20T09:34:30;100500.63;;;17.52;69.47
81181;BME280;70650;51.408;7.132;2023-07-20T09:37:00;100493.19;;;17.78;69.83
81181;BME280;70650;51.408;7.132;2023-07-20T09:39:26;100501.50;;;18.07;67.29
81181;BME280;70650;51.408;7.132;2023-07-20T09:41:52;100506.19;;;18.15;70.64
81181;BME280;70650;51.408;7.132;2023-07-20T09:44:18;100502.50;;;17.95;70.21
81181;BME280;70650;51.408;7.132;2023-07-20T09:46:47;100498.41;;;17.80;70.59
81181;BME280;70650;51.408;7.132;2023-07-20T09:49:14;100497.81;;;17.65;68.30
81181;BME280;70650;51.408;7.132;2023-07-20T09:51:40;100495.25;;;17.52;72.10
81181;BME280;70650;51.408;7.132;2023-07-20T09:54:07;100500.22;;;17.68;70.11
81181;BME280;70650;51.408;7.132;2023-07-20T09:56:33;100494.34;;;17.96;70.48
81181;BME280;70650;51.408;7.132;2023-07-20T09:58:58;100498.31;;;18.13;69.20
81181;BME280;70650;51.408;7.132;2023-07-20T10:01:24;100489.53;;;18.43;65.19
81181;BME280;70650;51.408;7.132;2023-07-20T10:03:53;100488.53;;;18.65;65.69
81181;BME280;70650;51.408;7.132;2023-07-20T10:06:23;100480.22;;;18.79;63.98
81181;BME280;70650;51.408;7.132;2023-07-20T10:08:52;100491.63;;;18.61;58.98
81181;BME280;70650;51.408;7.132;2023-07-20T10:11:18;100490.44;;;18.33;61.99
81181;BME280;70650;51.408;7.132;2023-07-20T10:13:46;100491.44;;;18.20;60.46
81181;BME280;70650;51.408;7.132;2023-07-20T10:16:22;100495.28;;;18.39;62.54
81181;BME280;70650;51.408;7.132;2023-07-20T10:18:57;100495.00;;;18.42;57.86
81181;BME280;70650;51.408;7.132;2023-07-20T10:21:24;100493.56;;;18.38;60.03
81181;BME280;70650;51.408;7.132;2023-07-20T10:23:50;100489.88;;;18.50;64.53
81181;BME280;70650;51.408;7.132;2023-07-20T10:26:16;100489.91;;;18.60;63.93
81181;BME280;70650;51.408;7.132;2023-07-20T10:28:41;100486.63;;;18.67;62.91
81181;BME280;70650;51.408;7.132;2023-07-20T10:31:08;100481.97;;;18.69;64.02
81181;BME280;70650;51.408;7.132;2023-07-20T10:33:35;100481.00;;;18.70;60.88
81181;BME280;70650;51.408;7.132;2023-07-20T10:36:01;100490.75;;;18.60;59.16
81181;BME280;70650;51.408;7.132;2023-07-20T10:41:18;100481.56;;;18.53;66.27
81181;BME280;70650;51.408;7.132;2023-07-20T10:43:45;100477.00;;;18.44;66.52
81181;BME280;70650;51.408;7.132;2023-07-20T10:46:12;100485.16;;;18.42;66.32
81181;BME280;70650;51.408;7.132;2023-07-20T10:49:01;100476.97;;;18.23;64.01
81181;BME280;70650;51.408;7.132;2023-07-20T10:51:27;100467.50;;;18.19;58.14
81181;BME280;70650;51.408;7.132;2023-07-20T10:53:55;100472.59;;;18.43;57.61
81181;BME280;70650;51.408;7.132;2023-07-20T10:56:23;100469.78;;;18.65;55.50
81181;BME280;70650;51.408;7.132;2023-07-20T10:58:55;100472.44;;;18.76;56.70
81181;BME280;70650;51.408;7.132;2023-07-20T11:01:27;100465.25;;;18.77;54.26
81181;BME280;70650;51.408;7.132;2023-07-20T11:03:57;100462.81;;;18.95;56.71
81181;BME280;70650;51.408;7.132;2023-07-20T11:11:46;100456.38;;;19.47;56.17
81181;BME280;70650;51.408;7.132;2023-07-20T11:14:25;100458.44;;;19.34;56.92
81181;BME280;70650;51.408;7.132;2023-07-20T11:16:52;100456.19;;;18.99;53.59
81181;BME280;70650;51.408;7.132;2023-07-20T11:21:58;100460.06;;;19.06;60.41
81181;BME280;70650;51.408;7.132;2023-07-20T11:24:24;100463.69;;;19.36;61.31
81181;BME280;70650;51.408;7.132;2023-07-20T11:26:53;100452.47;;;19.61;56.84
81181;BME280;70650;51.408;7.132;2023-07-20T11:29:20;100455.34;;;19.89;56.90
81181;BME280;70650;51.408;7.132;2023-07-20T11:31:46;100448.41;;;19.96;51.48
81181;BME280;70650;51.408;7.132;2023-07-20T11:34:16;100450.41;;;20.03;53.94
81181;BME280;70650;51.408;7.132;2023-07-20T11:36:43;100446.59;;;19.87;51.48
81181;BME280;70650;51.408;7.132;2023-07-20T11:39:13;100449.66;;;19.72;51.22
81181;BME280;70650;51.408;7.132;2023-07-20T11:41:43;100442.16;;;19.66;50.99
81181;BME280;70650;51.408;7.132;2023-07-20T11:44:09;100434.16;;;19.95;53.53
81181;BME280;70650;51.408;7.132;2023-07-20T11:46:39;100438.53;;;20.06;50.30
81181;BME280;70650;51.408;7.132;2023-07-20T11:49:05;100429.22;;;20.20;52.19
81181;BME280;70650;51.408;7.132;2023-07-20T11:51:31;100433.00;;;20.36;52.28
81181;BME280;70650;51.408;7.132;2023-07-20T11:53:57;100432.22;;;20.73;53.59
81181;BME280;70650;51.408;7.132;2023-07-20T11:56:24;100436.38;;;21.05;52.97
81181;BME280;70650;51.408;7.132;2023-07-20T11:58:50;100430.88;;;21.24;49.95
81181;BME280;70650;51.408;7.132;2023-07-20T12:01:15;100427.59;;;21.03;47.13
81181;BME280;70650;51.408;7.132;2023-07-20T12:03:43;100426.72;;;21.12;50.46
81181;BME280;70650;51.408;7.132;2023-07-20T12:06:09;100431.03;;;21.23;52.80
81181;BME280;70650;51.408;7.132;2023-07-20T12:08:38;100433.28;;;21.27;54.48
81181;BME280;70650;51.408;7.132;2023-07-20T12:11:04;100422.22;;;21.58;51.55
81181;BME280;70650;51.408;7.132;2023-07-20T12:13:37;100419.41;;;21.32;49.27
81181;BME280;70650;51.408;7.132;2023-07-20T12:16:13;100424.56;;;20.78;48.24
81181;BME280;70650;51.408;7.132;2023-07-20T12:18:39;100429.47;;;20.46;52.56
81181;BME280;70650;51.408;7.132;2023-07-20T12:21:05;100423.25;;;20.55;55.82
81181;BME280;70650;51.408;7.132;2023-07-20T12:23:38;100412.41;;;20.74;53.83
81181;BME280;70650;51.408;7.132;2023-07-20T12:26:08;100417.47;;;21.14;50.55
81181;BME280;70650;51.408;7.132;2023-07-20T12:28:38;100416.59;;;21.51;50.58
81181;BME280;70650;51.408;7.132;2023-07-20T12:31:05;100419.09;;;21.62;47.64
81181;BME280;70650;51.408;7.132;2023-07-20T12:33:31;100427.78;;;21.74;46.14
81181;BME280;70650;51.408;7.132;2023-07-20T12:35:56;100404.25;;;22.12;46.89
81181;BME280;70650;51.408;7.132;2023-07-20T12:38:24;100414.09;;;22.21;46.92
81181;BME280;70650;51.408;7.132;2023-07-20T12:40:49;100411.09;;;22.50;46.12
81181;BME280;70650;51.408;7.132;2023-07-20T12:43:15;100408.84;;;22.02;48.80
81181;BME280;70650;51.408;7.132;2023-07-20T12:45:40;100409.38;;;21.69;49.80
81181;BME280;70650;51.408;7.132;2023-07-20T12:48:06;100408.81;;;21.30;49.96
81181;BME280;70650;51.408;7.132;2023-07-20T12:50:31;100408.09;;;21.01;50.46
81181;BME280;70650;51.408;7.132;2023-07-20T12:52:57;100412.09;;;20.87;53.47
81181;BME280;70650;51.408;7.132;2023-07-20T12:55:22;100405.94;;;20.67;53.20
81181;BME280;70650;51.408;7.132;2023-07-20T12:57:47;100402.03;;;20.42;51.58
81181;BME280;70650;51.408;7.132;2023-07-20T13:00:14;100404.31;;;20.18;56.26
81181;BME280;70650;51.408;7.132;2023-07-20T13:02:39;100400.22;;;20.13;56.87